Time;durP1;ratioP1;P1;durP2;ratioP2;P2;SDS_P1;SDS_P2;PMS_P1;PMS_P2;Temp;Humidity;BMP_temperature;BMP_pressure;BME280_temperature;BME280_humidity;BME280_pressure;Samples;Min_cycle;Max_cycle;Signal;HPM_P1;HPM_P2
2021/11/15 00:00:13;;;;;;;28.15;15.52;;;9.00;99.90;;;;;;5053108;28;20021;-65
2021/11/15 00:02:41;;;;;;;26.88;16.45;;;8.90;99.90;;;;;;5052652;28;20033;-64
2021/11/15 00:05:08;;;;;;;30.70;16.00;;;9.00;99.90;;;;;;5051859;28;20033;-65
2021/11/15 00:07:34;;;;;;;29.35;16.02;;;9.00;99.90;;;;;;5053385;28;20033;-66
2021/11/15 00:09:59;;;;;;;32.60;16.13;;;8.80;99.90;;;;;;5052645;28;20043;-68
2021/11/15 00:12:25;;;;;;;28.02;16.20;;;9.40;99.90;;;;;;5052980;28;20021;-65
2021/11/15 00:14:51;;;;;;;28.48;16.38;;;8.90;99.90;;;;;;5052310;28;20475;-65
2021/11/15 00:17:17;;;;;;;30.88;17.08;;;8.80;99.90;;;;;;5053301;28;20067;-65
2021/11/15 00:19:42;;;;;;;28.25;16.52;;;8.80;99.90;;;;;;5053504;28;20501;-65
2021/11/15 00:22:08;;;;;;;30.92;16.48;;;8.80;99.90;;;;;;5053254;28;20479;-65
2021/11/15 00:24:33;;;;;;;28.42;16.98;;;8.80;99.90;;;;;;5051547;28;20479;-65
2021/11/15 00:26:59;;;;;;;31.42;17.58;;;9.10;99.90;;;;;;5053095;28;20028;-66
2021/11/15 00:29:25;;;;;;;30.92;16.60;;;8.70;99.90;;;;;;5053188;28;20040;-65
2021/11/15 00:31:51;;;;;;;30.00;16.15;;;8.90;99.90;;;;;;5053031;28;20463;-66
2021/11/15 00:34:16;;;;;;;32.97;16.55;;;9.10;99.90;;;;;;5050999;28;20064;-66
2021/11/15 00:36:42;;;;;;;29.60;17.15;;;9.10;99.90;;;;;;5052219;28;20021;-67
2021/11/15 00:39:08;;;;;;;31.70;17.00;;;8.80;99.90;;;;;;5051880;28;20060;-66
2021/11/15 00:41:34;;;;;;;32.80;16.10;;;9.20;99.90;;;;;;5052151;28;20075;-65
2021/11/15 00:43:59;;;;;;;27.95;16.45;;;8.70;99.90;;;;;;5052253;28;20035;-66
2021/11/15 00:46:25;;;;;;;34.15;18.65;;;8.80;99.90;;;;;;5051649;28;20087;-65
2021/11/15 00:48:56;;;;;;;30.85;17.63;;;9.00;99.90;;;;;;5051966;28;20471;-64
2021/11/15 00:51:27;;;;;;;27.57;16.43;;;8.80;99.90;;;;;;5051696;28;20052;-65
2021/11/15 00:53:53;;;;;;;31.23;15.95;;;8.70;99.90;;;;;;5052331;28;20039;-65
2021/11/15 00:56:19;;;;;;;28.67;16.70;;;8.80;99.90;;;;;;5051101;28;20111;-67
2021/11/15 00:58:44;;;;;;;28.65;15.98;;;8.70;99.90;;;;;;5051806;28;20472;-66
2021/11/15 01:01:10;;;;;;;26.77;16.15;;;8.70;99.90;;;;;;5051576;28;20108;-65
2021/11/15 01:03:36;;;;;;;29.90;16.92;;;8.80;99.90;;;;;;5051442;28;20029;-66
2021/11/15 01:06:02;;;;;;;29.17;15.90;;;8.40;99.90;;;;;;5050842;28;20021;-66
2021/11/15 01:08:28;;;;;;;30.33;16.65;;;9.50;99.90;;;;;;5051506;28;20307;-65
2021/11/15 01:10:54;;;;;;;30.42;16.70;;;8.90;99.90;;;;;;5051244;28;20032;-66
2021/11/15 01:13:21;;;;;;;28.50;15.75;;;8.70;99.90;;;;;;5051478;28;20021;-64
2021/11/15 01:15:47;;;;;;;32.17;17.88;;;8.70;99.90;;;;;;5050787;28;20017;-65
2021/11/15 01:18:13;;;;;;;29.27;15.00;;;9.00;99.90;;;;;;5051306;28;20548;-64
2021/11/15 01:20:39;;;;;;;30.00;17.15;;;8.80;99.90;;;;;;5051229;28;20049;-67
2021/11/15 01:23:06;;;;;;;32.75;17.55;;;8.70;99.90;;;;;;5051389;28;20021;-66
2021/11/15 01:25:33;;;;;;;33.65;17.38;;;8.60;99.90;;;;;;5050644;28;20029;-67
2021/11/15 01:27:59;;;;;;;30.70;15.48;;;8.70;99.90;;;;;;5051268;28;20029;-65
2021/11/15 01:30:25;;;;;;;24.40;14.57;;;8.60;99.90;;;;;;5050985;28;20396;-65
2021/11/15 01:32:52;;;;;;;28.00;15.10;;;8.60;99.90;;;;;;5050714;28;20017;-66
2021/11/15 01:35:19;;;;;;;27.52;14.88;;;9.20;99.90;;;;;;5047793;28;20732;-65
2021/11/15 01:37:45;;;;;;;28.98;15.55;;;8.70;99.90;;;;;;5050997;28;20028;-66
2021/11/15 01:40:15;;;;;;;24.75;15.38;;;8.60;99.90;;;;;;5051098;28;20033;-65
2021/11/15 01:42:40;;;;;;;25.73;13.65;;;8.60;99.90;;;;;;5051178;28;20036;-66
2021/11/15 01:45:07;;;;;;;27.88;15.35;;;8.50;99.90;;;;;;5050401;28;20435;-67
2021/11/15 01:47:33;;;;;;;27.25;14.52;;;8.90;99.90;;;;;;5050796;28;20079;-66
2021/11/15 01:49:59;;;;;;;28.38;14.93;;;8.60;99.90;;;;;;5050663;28;20433;-66
2021/11/15 01:52:24;;;;;;;26.10;14.43;;;8.80;99.90;;;;;;5051015;28;20023;-66
2021/11/15 01:54:50;;;;;;;23.15;13.43;;;8.40;99.90;;;;;;5049987;28;20360;-66
2021/11/15 01:57:18;;;;;;;26.27;14.32;;;8.50;99.90;;;;;;5050865;28;20024;-66
2021/11/15 01:59:46;;;;;;;21.65;12.80;;;8.50;99.90;;;;;;5050579;28;20104;-65
2021/11/15 02:02:11;;;;;;;23.70;13.38;;;8.60;99.90;;;;;;5050631;28;20087;-65
2021/11/15 02:04:37;;;;;;;23.70;13.48;;;8.60;99.90;;;;;;5048856;28;20093;-65
2021/11/15 02:07:04;;;;;;;24.50;13.07;;;8.50;99.90;;;;;;5050786;28;20514;-66
2021/11/15 02:09:29;;;;;;;20.65;13.50;;;8.60;99.90;;;;;;5050529;28;20025;-67
2021/11/15 02:11:56;;;;;;;21.75;12.40;;;8.60;99.90;;;;;;5050683;28;20055;-65
2021/11/15 02:14:22;;;;;;;20.67;12.07;;;8.60;99.90;;;;;;5050178;28;20374;-65
2021/11/15 02:16:47;;;;;;;21.40;13.52;;;8.50;99.90;;;;;;5050678;28;20025;-66
2021/11/15 02:19:13;;;;;;;23.00;13.25;;;8.50;99.90;;;;;;5050011;28;20033;-66
2021/11/15 02:21:39;;;;;;;20.23;11.55;;;8.50;99.90;;;;;;5050653;28;20064;-65
2021/11/15 02:24:05;;;;;;;23.25;12.07;;;8.50;99.90;;;;;;5050467;28;20037;-66
2021/11/15 02:26:31;;;;;;;23.30;12.32;;;8.50;99.90;;;;;;5049933;28;20033;-64
2021/11/15 02:28:57;;;;;;;22.90;13.00;;;8.50;99.90;;;;;;5050420;28;20033;-66
2021/11/15 02:31:28;;;;;;;19.90;11.85;;;8.50;99.90;;;;;;5050372;28;20078;-64
2021/11/15 02:33:56;;;;;;;20.37;11.83;;;8.50;99.90;;;;;;5050269;28;20020;-67
2021/11/15 02:36:24;;;;;;;20.55;11.88;;;8.50;99.90;;;;;;5049736;28;20649;-66
2021/11/15 02:38:54;;;;;;;20.08;11.80;;;8.50;99.90;;;;;;5050503;28;20048;-65
2021/11/15 02:41:22;;;;;;;21.15;11.57;;;8.40;99.90;;;;;;5050501;28;20415;-66
2021/11/15 02:43:48;;;;;;;19.75;10.85;;;8.40;99.90;;;;;;5050548;28;20445;-66
2021/11/15 02:46:14;;;;;;;22.55;12.02;;;8.30;99.90;;;;;;5049716;28;20078;-65
2021/11/15 02:48:40;;;;;;;19.27;11.80;;;8.80;99.90;;;;;;5050024;28;20100;-65
2021/11/15 02:51:06;;;;;;;17.63;11.50;;;8.40;99.90;;;;;;5050052;28;20029;-65
2021/11/15 02:53:32;;;;;;;19.90;11.43;;;8.50;99.90;;;;;;5050497;28;20028;-64
2021/11/15 02:55:59;;;;;;;19.83;11.32;;;8.40;99.90;;;;;;5049346;28;20033;-65
2021/11/15 02:58:25;;;;;;;18.15;12.07;;;8.40;99.90;;;;;;5050131;28;20531;-65
2021/11/15 03:01:06;;;;;;;18.75;10.77;;;8.70;99.90;;;;;;5049868;28;20104;-65
2021/11/15 03:03:32;;;;;;;17.83;10.52;;;8.70;99.90;;;;;;5050041;28;20039;-65
2021/11/15 03:05:58;;;;;;;19.40;11.05;;;8.10;99.90;;;;;;5049455;28;20026;-65
2021/11/15 03:08:24;;;;;;;18.20;10.85;;;8.30;99.90;;;;;;5050045;28;20036;-64
2021/11/15 03:10:58;;;;;;;18.08;10.43;;;8.60;99.90;;;;;;5050312;28;20425;-64
2021/11/15 03:13:26;;;;;;;21.60;11.27;;;8.70;99.90;;;;;;5050691;28;20249;-65
2021/11/15 03:15:53;;;;;;;16.45;10.68;;;8.30;99.90;;;;;;5052620;28;20071;-65
2021/11/15 03:18:23;;;;;;;18.40;11.20;;;8.30;99.90;;;;;;5052608;28;20082;-63
2021/11/15 03:20:52;;;;;;;20.65;11.07;;;8.60;99.90;;;;;;5053719;28;20025;-64
2021/11/15 03:23:22;;;;;;;19.23;10.45;;;8.30;99.90;;;;;;5054137;28;20040;-63
2021/11/15 03:25:49;;;;;;;18.65;11.05;;;8.40;99.90;;;;;;5053090;28;20021;-65
2021/11/15 03:28:19;;;;;;;17.35;10.38;;;8.20;99.90;;;;;;5053847;28;20112;-65
2021/11/15 03:30:45;;;;;;;16.90;10.70;;;8.20;99.90;;;;;;5054533;28;20028;-65
2021/11/15 03:33:12;;;;;;;17.70;9.98;;;8.20;99.90;;;;;;5053627;28;20467;-65
2021/11/15 03:35:38;;;;;;;20.70;11.07;;;8.30;99.90;;;;;;5052963;28;20021;-64
2021/11/15 03:38:05;;;;;;;20.48;10.32;;;5.50;99.90;;;;;;5053882;28;20045;-64
2021/11/15 03:40:31;;;;;;;17.67;10.50;;;8.10;99.90;;;;;;5053481;28;20056;-65
2021/11/15 03:43:01;;;;;;;17.40;10.50;;;8.20;99.90;;;;;;5053585;28;20605;-64
2021/11/15 03:45:28;;;;;;;18.88;10.93;;;8.30;99.90;;;;;;5052849;28;20029;-63
2021/11/15 03:47:55;;;;;;;18.45;10.27;;;8.20;99.90;;;;;;5053165;28;20025;-64
2021/11/15 03:50:22;;;;;;;15.88;9.98;;;8.20;99.90;;;;;;5053360;28;20112;-63
2021/11/15 03:52:49;;;;;;;16.55;10.55;;;8.50;99.90;;;;;;5053147;28;20025;-64
2021/11/15 03:55:17;;;;;;;19.00;10.90;;;8.00;99.90;;;;;;5053936;28;20100;-64
2021/11/15 03:57:44;;;;;;;13.25;9.48;;;8.00;99.90;;;;;;5054336;28;20387;-64
2021/11/15 04:00:13;;;;;;;16.67;9.70;;;8.10;99.90;;;;;;5054092;28;20124;-63
2021/11/15 04:02:40;;;;;;;18.95;10.13;;;8.10;99.90;;;;;;5057475;28;20589;-63
2021/11/15 04:05:09;;;;;;;17.52;9.70;;;8.00;99.90;;;;;;5071774;28;20025;-65
2021/11/15 04:07:39;;;;;;;18.77;10.55;;;7.50;99.90;;;;;;5063687;28;20475;-63
2021/11/15 04:10:13;;;;;;;15.88;9.73;;;8.30;99.90;;;;;;5055148;28;20383;-64
2021/11/15 04:12:39;;;;;;;16.65;9.60;;;8.00;99.90;;;;;;5054604;28;20170;-65
2021/11/15 04:15:07;;;;;;;18.88;11.23;;;8.10;99.90;;;;;;5052667;28;20479;-65
2021/11/15 04:17:33;;;;;;;21.42;11.13;;;8.00;99.90;;;;;;5053365;28;20075;-65
2021/11/15 04:19:59;;;;;;;19.33;11.40;;;7.90;99.90;;;;;;5052204;28;20029;-64
2021/11/15 04:22:25;;;;;;;16.85;10.02;;;8.00;99.90;;;;;;5052562;28;20112;-64
2021/11/15 04:24:50;;;;;;;16.20;10.30;;;8.40;99.90;;;;;;5052159;28;20057;-65
2021/11/15 04:27:16;;;;;;;19.00;10.32;;;8.10;99.90;;;;;;5052005;28;20505;-63
2021/11/15 04:29:42;;;;;;;18.73;10.88;;;7.90;99.90;;;;;;5052354;28;20029;-64
2021/11/15 04:32:08;;;;;;;20.52;11.52;;;8.00;99.90;;;;;;5052531;28;20029;-64
2021/11/15 04:34:35;;;;;;;17.63;11.68;;;7.70;99.90;;;;;;5051167;28;20099;-65
2021/11/15 04:37:01;;;;;;;21.67;11.35;;;7.90;99.90;;;;;;5052582;28;20021;-64
2021/11/15 04:39:27;;;;;;;19.65;11.68;;;7.70;99.90;;;;;;5052411;28;20025;-64
2021/11/15 04:41:53;;;;;;;21.52;12.50;;;7.90;99.90;;;;;;5053121;28;20032;-64
2021/11/15 04:44:19;;;;;;;18.88;12.27;;;7.90;99.90;;;;;;5052284;28;20025;-63
2021/11/15 04:46:44;;;;;;;20.33;11.98;;;7.90;99.90;;;;;;5052155;28;20021;-64
2021/11/15 04:49:10;;;;;;;19.92;12.27;;;7.80;99.90;;;;;;5051708;28;20387;-65
2021/11/15 04:51:36;;;;;;;19.70;11.63;;;7.90;99.90;;;;;;5052014;28;20518;-65
2021/11/15 04:54:02;;;;;;;20.90;12.30;;;7.90;99.90;;;;;;5052107;28;20033;-65
2021/11/15 04:56:28;;;;;;;22.10;12.80;;;7.90;99.90;;;;;;5051333;28;20552;-65
2021/11/15 04:58:54;;;;;;;21.90;13.70;;;7.90;99.90;;;;;;5051876;28;20020;-65
2021/11/15 05:01:19;;;;;;;24.65;14.02;;;7.90;99.90;;;;;;5051719;28;20044;-64
2021/11/15 05:03:45;;;;;;;23.23;13.55;;;7.80;99.90;;;;;;5051357;28;20032;-64
2021/11/15 05:06:11;;;;;;;24.60;13.27;;;7.90;99.90;;;;;;5051213;28;20103;-65
2021/11/15 05:08:37;;;;;;;25.10;14.02;;;7.80;99.90;;;;;;5052000;28;20021;-66
2021/11/15 05:11:03;;;;;;;22.92;14.27;;;7.90;99.90;;;;;;5051504;28;20030;-64
2021/11/15 05:13:29;;;;;;;19.27;12.90;;;7.80;99.90;;;;;;5051482;28;20033;-65
2021/11/15 05:15:55;;;;;;;23.73;13.95;;;7.80;99.90;;;;;;5050894;28;20017;-65
2021/11/15 05:18:22;;;;;;;24.23;14.05;;;7.90;99.90;;;;;;5051394;28;20353;-64
2021/11/15 05:20:47;;;;;;;22.80;13.95;;;8.10;99.90;;;;;;5051207;28;20053;-64
2021/11/15 05:23:13;;;;;;;23.83;14.05;;;7.60;99.90;;;;;;5051552;28;20595;-65
2021/11/15 05:25:39;;;;;;;25.67;13.65;;;7.80;99.90;;;;;;5050585;28;20025;-66
2021/11/15 05:28:04;;;;;;;28.77;14.80;;;7.80;99.90;;;;;;5038356;28;20068;-68
2021/11/15 05:30:31;;;;;;;25.00;13.75;;;7.70;99.90;;;;;;5049526;28;20036;-69
2021/11/15 05:32:56;;;;;;;23.75;13.90;;;7.80;99.90;;;;;;5045270;28;20033;-68
2021/11/15 05:35:25;;;;;;;21.42;13.35;;;7.60;99.90;;;;;;5050190;28;20020;-68
2021/11/15 05:37:53;;;;;;;24.40;14.63;;;7.90;99.90;;;;;;5042249;28;20047;-68
2021/11/15 05:40:20;;;;;;;24.25;13.68;;;8.00;99.90;;;;;;5051738;28;20112;-68
2021/11/15 05:42:46;;;;;;;25.70;14.10;;;7.70;99.90;;;;;;5044253;28;20048;-67
2021/11/15 05:45:12;;;;;;;23.60;13.38;;;7.70;99.90;;;;;;5046675;28;20104;-68
2021/11/15 05:47:40;;;;;;;21.90;13.82;;;7.40;99.90;;;;;;5031793;28;20396;-68
2021/11/15 05:50:07;;;;;;;23.25;13.98;;;7.20;99.90;;;;;;5031274;28;20040;-68
2021/11/15 05:52:38;;;;;;;23.15;14.02;;;7.60;99.90;;;;;;5033264;28;20380;-68
2021/11/15 05:55:04;;;;;;;27.10;14.70;;;7.90;99.90;;;;;;5032282;28;20108;-69
2021/11/15 05:57:29;;;;;;;24.10;13.77;;;7.80;99.90;;;;;;5030320;28;20099;-69
2021/11/15 05:59:55;;;;;;;22.42;14.27;;;7.70;99.90;;;;;;5031169;28;20468;-69
2021/11/15 06:02:20;;;;;;;25.23;14.45;;;7.70;99.90;;;;;;5040248;28;20033;-69
2021/11/15 06:04:46;;;;;;;25.58;15.30;;;7.70;99.90;;;;;;5050590;28;20037;-69
2021/11/15 06:07:12;;;;;;;22.42;14.05;;;7.70;99.90;;;;;;5051553;28;20029;-69
2021/11/15 06:09:37;;;;;;;24.42;14.65;;;7.70;99.90;;;;;;5051076;28;20029;-69
2021/11/15 06:12:03;;;;;;;25.58;15.38;;;7.20;99.90;;;;;;5062856;22;20025;-65
2021/11/15 06:14:29;;;;;;;24.00;13.20;;;7.60;99.90;;;;;;5008189;28;20038;-74
2021/11/15 06:16:55;;;;;;;23.85;12.82;;;7.60;99.90;;;;;;5011208;28;20030;-74
2021/11/15 06:19:20;;;;;;;25.98;14.68;;;8.00;99.90;;;;;;5010418;28;20026;-72
2021/11/15 06:21:46;;;;;;;26.67;14.40;;;8.40;99.90;;;;;;5007061;28;20101;-72
2021/11/15 06:24:12;;;;;;;24.77;14.57;;;8.20;99.90;;;;;;4973526;28;20458;-66
2021/11/15 06:26:37;;;;;;;25.13;15.52;;;8.20;99.90;;;;;;4972377;28;20054;-65
2021/11/15 06:29:03;;;;;;;24.08;14.40;;;8.10;99.90;;;;;;4972425;28;20057;-66
2021/11/15 06:31:29;;;;;;;21.50;14.80;;;8.00;99.90;;;;;;4984966;28;20038;-66
2021/11/15 06:33:55;;;;;;;25.23;14.57;;;7.80;99.90;;;;;;4993271;28;20088;-68
2021/11/15 06:36:22;;;;;;;25.05;14.82;;;7.70;99.90;;;;;;4991914;28;20026;-68
2021/11/15 06:38:53;;;;;;;26.20;14.95;;;7.80;99.90;;;;;;4992462;28;20093;-69
2021/11/15 06:41:21;;;;;;;24.23;14.63;;;7.80;99.90;;;;;;4992564;28;20023;-68
2021/11/15 06:43:46;;;;;;;25.92;15.63;;;7.70;99.90;;;;;;5004806;28;20168;-69
2021/11/15 06:46:14;;;;;;;26.20;15.25;;;7.70;99.90;;;;;;5011864;28;20535;-69
2021/11/15 06:48:43;;;;;;;25.90;14.40;;;7.80;99.90;;;;;;5011890;28;20495;-69
2021/11/15 06:51:10;;;;;;;26.58;16.08;;;7.80;99.90;;;;;;5015095;28;20026;-68
2021/11/15 06:53:38;;;;;;;23.98;15.55;;;7.70;99.90;;;;;;5016371;28;20026;-68
2021/11/15 06:56:05;;;;;;;26.48;16.40;;;7.80;99.90;;;;;;5014879;28;20025;-69
2021/11/15 06:58:31;;;;;;;26.85;15.20;;;7.80;99.90;;;;;;5015183;28;20065;-68
2021/11/15 07:00:57;;;;;;;26.48;16.05;;;7.80;99.90;;;;;;5015382;28;20101;-68
2021/11/15 07:03:23;;;;;;;23.17;14.65;;;7.70;99.90;;;;;;5015368;28;20441;-68
2021/11/15 07:05:49;;;;;;;25.90;15.63;;;7.70;99.90;;;;;;5014687;28;20025;-66
2021/11/15 07:08:16;;;;;;;28.17;16.55;;;7.80;99.90;;;;;;5015083;28;20427;-67
2021/11/15 07:10:42;;;;;;;24.02;14.70;;;7.80;99.90;;;;;;5016716;28;20084;-68
2021/11/15 07:13:08;;;;;;;26.52;15.05;;;7.70;99.90;;;;;;5018206;28;20714;-67
2021/11/15 07:15:34;;;;;;;29.70;16.70;;;7.60;99.90;;;;;;5015367;28;20049;-65
2021/11/15 07:18:00;;;;;;;29.05;15.77;;;7.60;99.90;;;;;;5014956;28;20034;-67
2021/11/15 07:20:26;;;;;;;24.85;15.30;;;7.70;99.90;;;;;;5016243;28;20026;-68
2021/11/15 07:22:52;;;;;;;26.17;15.88;;;7.70;99.90;;;;;;5005794;28;20475;-66
2021/11/15 07:25:19;;;;;;;26.45;15.43;;;7.70;99.90;;;;;;4998929;28;20053;-67
2021/11/15 07:27:48;;;;;;;21.08;14.55;;;7.70;99.90;;;;;;4999039;28;20452;-68
2021/11/15 07:30:14;;;;;;;25.05;15.68;;;7.60;99.90;;;;;;4996048;28;20030;-68
2021/11/15 07:32:41;;;;;;;26.05;15.07;;;7.60;99.90;;;;;;4998530;28;20054;-74
2021/11/15 07:35:10;;;;;;;25.67;15.57;;;7.60;99.90;;;;;;4994038;28;20058;-67
2021/11/15 07:37:36;;;;;;;26.10;15.65;;;7.70;99.90;;;;;;4995304;28;20027;-67
2021/11/15 07:40:07;;;;;;;22.50;14.98;;;7.70;99.90;;;;;;4995155;28;20029;-61
2021/11/15 07:42:34;;;;;;;24.85;14.90;;;7.70;99.90;;;;;;4999104;28;20096;-63
2021/11/15 07:45:00;;;;;;;24.40;15.02;;;7.80;99.90;;;;;;5013485;28;20034;-63
2021/11/15 07:47:26;;;;;;;24.38;15.15;;;7.70;99.90;;;;;;5014516;28;20091;-60
2021/11/15 07:49:52;;;;;;;27.63;14.45;;;7.70;99.90;;;;;;5013818;28;20025;-61
2021/11/15 07:52:18;;;;;;;25.42;16.08;;;7.70;99.90;;;;;;5014154;28;20026;-64
2021/11/15 07:54:46;;;;;;;24.38;14.82;;;7.90;99.90;;;;;;5013348;28;20496;-62
2021/11/15 07:57:12;;;;;;;27.08;15.02;;;7.70;99.90;;;;;;5014315;28;20476;-64
2021/11/15 07:59:38;;;;;;;22.73;14.98;;;7.70;99.90;;;;;;5013686;28;20025;-61
2021/11/15 08:02:05;;;;;;;26.77;16.08;;;7.70;99.90;;;;;;5012846;28;20037;-62
2021/11/15 08:04:31;;;;;;;24.23;14.70;;;7.80;99.90;;;;;;5013393;28;20045;-60
2021/11/15 08:06:57;;;;;;;27.00;15.25;;;7.80;99.90;;;;;;5013899;28;20022;-63
2021/11/15 08:09:23;;;;;;;25.55;14.73;;;7.80;99.90;;;;;;5013596;28;20037;-61
2021/11/15 08:11:52;;;;;;;26.40;14.32;;;7.80;99.90;;;;;;5012579;28;20508;-61
2021/11/15 08:14:18;;;;;;;23.73;14.05;;;7.80;99.90;;;;;;5013049;28;20036;-63
2021/11/15 08:16:46;;;;;;;21.45;14.15;;;7.90;99.90;;;;;;5013974;28;20029;-60
2021/11/15 08:19:12;;;;;;;25.42;14.77;;;7.90;99.90;;;;;;5013854;28;20037;-61
2021/11/15 08:21:38;;;;;;;24.83;15.15;;;7.80;99.90;;;;;;5013802;28;20036;-63
2021/11/15 08:24:25;;;;;;;24.25;14.65;;;7.80;99.90;;;;;;5013679;28;20380;-63
2021/11/15 08:27:01;;;;;;;23.02;14.65;;;7.90;99.90;;;;;;5013625;28;20038;-61
2021/11/15 08:29:29;;;;;;;25.92;15.63;;;7.80;99.90;;;;;;5013265;28;20048;-62
2021/11/15 08:31:58;;;;;;;25.50;15.30;;;7.90;99.90;;;;;;5013444;28;20064;-62
2021/11/15 08:34:25;;;;;;;24.33;14.98;;;7.80;99.90;;;;;;5012703;28;20022;-62
2021/11/15 08:36:51;;;;;;;24.10;15.65;;;7.90;99.90;;;;;;5013166;28;20018;-63
2021/11/15 08:39:19;;;;;;;23.20;15.38;;;7.90;99.90;;;;;;5013140;28;20025;-61
2021/11/15 08:41:52;;;;;;;27.05;14.90;;;7.90;99.90;;;;;;5013431;28;20546;-62
2021/11/15 08:44:19;;;;;;;23.20;14.35;;;7.80;99.90;;;;;;5012376;28;20036;-60
2021/11/15 08:46:47;;;;;;;21.77;14.52;;;7.80;99.90;;;;;;5013139;28;20072;-62
2021/11/15 08:49:14;;;;;;;30.88;15.57;;;7.90;99.90;;;;;;5012928;28;20022;-62
2021/11/15 08:51:42;;;;;;;24.95;14.80;;;7.80;99.90;;;;;;5013107;28;20033;-59
2021/11/15 08:54:14;;;;;;;21.20;13.70;;;7.90;99.90;;;;;;5012733;28;20535;-63
2021/11/15 08:56:41;;;;;;;21.00;13.30;;;7.80;99.90;;;;;;5012577;28;20053;-62
2021/11/15 08:59:06;;;;;;;27.00;14.23;;;7.80;99.90;;;;;;5012403;28;20026;-61
2021/11/15 09:01:32;;;;;;;19.25;12.38;;;8.00;99.90;;;;;;5012721;28;20022;-60
2021/11/15 09:03:58;;;;;;;20.65;13.10;;;8.00;99.90;;;;;;5013074;28;20040;-63
2021/11/15 09:06:29;;;;;;;19.25;11.88;;;7.90;99.90;;;;;;5012235;28;20036;-63
2021/11/15 09:08:55;;;;;;;19.02;11.90;;;8.00;99.90;;;;;;5012540;28;20065;-61
2021/11/15 09:11:21;;;;;;;20.30;12.38;;;8.00;99.90;;;;;;5012839;28;20034;-61
2021/11/15 09:13:47;;;;;;;18.00;10.48;;;8.00;99.90;;;;;;5012054;28;20026;-63
2021/11/15 09:16:15;;;;;;;18.02;11.15;;;8.00;99.90;;;;;;5012071;28;20018;-62
2021/11/15 09:18:42;;;;;;;21.02;11.13;;;8.00;99.90;;;;;;5012721;28;20018;-63
2021/11/15 09:21:08;;;;;;;17.55;10.57;;;7.80;99.90;;;;;;5012766;28;20472;-63
2021/11/15 09:23:42;;;;;;;18.50;11.50;;;7.90;99.90;;;;;;5012502;28;20376;-61
2021/11/15 09:26:10;;;;;;;18.27;10.82;;;7.80;99.90;;;;;;5012095;28;20032;-63
2021/11/15 09:28:37;;;;;;;16.45;10.95;;;7.70;99.90;;;;;;5012547;28;20026;-63
2021/11/15 09:31:04;;;;;;;14.75;9.52;;;7.90;99.90;;;;;;5012968;28;20384;-61
2021/11/15 09:33:30;;;;;;;15.93;10.13;;;7.90;99.90;;;;;;5012465;28;20022;-70
2021/11/15 09:35:56;;;;;;;17.15;10.35;;;8.00;99.90;;;;;;5011929;28;20097;-61
2021/11/15 09:38:23;;;;;;;18.40;10.93;;;8.10;99.90;;;;;;5012461;28;20026;-62
2021/11/15 09:40:59;;;;;;;19.70;10.70;;;7.90;99.90;;;;;;5012524;28;20121;-62
2021/11/15 09:43:33;;;;;;;15.73;10.07;;;7.90;99.90;;;;;;5012189;28;20089;-64
2021/11/15 09:46:06;;;;;;;18.45;9.82;;;7.90;99.90;;;;;;5011882;28;20038;-63
2021/11/15 09:48:43;;;;;;;15.30;10.10;;;8.00;99.90;;;;;;5012659;28;20105;-61
2021/11/15 09:51:10;;;;;;;19.02;10.00;;;8.00;99.90;;;;;;5016898;28;20030;-64
2021/11/15 09:53:36;;;;;;;16.23;9.48;;;8.10;99.90;;;;;;5026877;28;20022;-64
2021/11/15 09:56:03;;;;;;;16.02;9.45;;;8.10;99.90;;;;;;5015879;28;20025;-60
2021/11/15 09:58:30;;;;;;;17.40;10.20;;;8.10;99.90;;;;;;5011852;28;20044;-61
2021/11/15 10:00:56;;;;;;;14.45;9.10;;;8.20;99.90;;;;;;5012132;28;20060;-61
2021/11/15 10:03:22;;;;;;;16.88;8.60;;;8.10;99.90;;;;;;5012189;28;20026;-61
2021/11/15 10:05:48;;;;;;;12.35;8.32;;;8.20;99.90;;;;;;5010820;28;20431;-63
2021/11/15 10:08:14;;;;;;;15.80;9.00;;;8.30;99.90;;;;;;5011598;28;20030;-63
2021/11/15 10:10:57;;;;;;;14.68;8.98;;;8.30;99.90;;;;;;5011785;28;20033;-61
2021/11/15 10:13:30;;;;;;;13.23;8.35;;;8.40;99.90;;;;;;5011499;28;20030;-61
2021/11/15 10:15:59;;;;;;;12.23;8.55;;;8.30;99.90;;;;;;5011614;28;20035;-63
2021/11/15 10:18:43;;;;;;;12.63;8.15;;;8.30;99.90;;;;;;5011543;28;20075;-61
2021/11/15 10:21:21;;;;;;;13.88;8.27;;;8.20;99.90;;;;;;5011519;28;20045;-63
2021/11/15 10:24:07;;;;;;;13.52;8.48;;;8.20;99.90;;;;;;5011518;28;20568;-62
2021/11/15 10:26:55;;;;;;;12.10;8.43;;;8.20;99.90;;;;;;5014389;28;20594;-62
2021/11/15 10:29:25;;;;;;;15.02;8.75;;;8.10;99.90;;;;;;5015473;28;20499;-61
2021/11/15 10:32:13;;;;;;;12.95;8.65;;;8.20;99.90;;;;;;5015073;28;20029;-61
2021/11/15 10:34:45;;;;;;;12.65;8.20;;;8.20;99.90;;;;;;5015084;28;20460;-62
2021/11/15 10:37:29;;;;;;;11.82;8.45;;;8.20;99.90;;;;;;5015628;28;20030;-60
2021/11/15 10:39:57;;;;;;;14.70;8.63;;;8.20;99.90;;;;;;5015517;28;20519;-61
2021/11/15 10:42:26;;;;;;;15.52;8.75;;;8.20;99.90;;;;;;5014931;28;20030;-62
2021/11/15 10:45:05;;;;;;;13.88;8.02;;;8.30;99.90;;;;;;5014157;28;20504;-63
2021/11/15 10:47:58;;;;;;;13.20;8.20;;;8.40;99.90;;;;;;5014690;28;20026;-62
2021/11/15 10:50:30;;;;;;;13.95;8.63;;;8.30;99.90;;;;;;5011769;28;20112;-63
2021/11/15 10:53:14;;;;;;;14.25;8.73;;;8.20;99.90;;;;;;5015106;28;20439;-63
2021/11/15 10:56:05;;;;;;;14.70;8.50;;;8.20;99.90;;;;;;5014478;28;20032;-62
2021/11/15 10:58:38;;;;;;;16.65;8.80;;;8.30;99.90;;;;;;5014609;28;20034;-63
2021/11/15 11:01:05;;;;;;;13.05;8.77;;;8.20;99.90;;;;;;5014796;28;20025;-59
2021/11/15 11:03:32;;;;;;;12.50;8.50;;;8.20;99.90;;;;;;5015337;28;20029;-62
2021/11/15 11:06:04;;;;;;;13.90;9.55;;;8.20;99.90;;;;;;5014230;28;20026;-62
2021/11/15 11:08:49;;;;;;;14.18;8.82;;;8.40;99.90;;;;;;5015060;28;20120;-60
2021/11/15 11:11:29;;;;;;;12.45;7.75;;;8.20;99.90;;;;;;5014528;28;20034;-63
2021/11/15 11:14:08;;;;;;;14.07;11.60;;;8.30;99.90;;;;;;5014207;28;20038;-61
2021/11/15 11:16:39;;;;;;;13.68;8.77;;;8.20;99.90;;;;;;5014194;28;20025;-63
2021/11/15 11:24:57;;;;;;;13.10;8.32;;;8.20;99.90;;;;;;4960201;28;20114;-61
2021/11/15 11:27:26;;;;;;;13.43;7.53;;;8.30;99.90;;;;;;5014259;28;20595;-61
2021/11/15 11:29:53;;;;;;;10.52;7.57;;;8.30;99.90;;;;;;5013908;28;20029;-63
2021/11/15 11:32:22;;;;;;;11.65;7.13;;;8.40;99.90;;;;;;5014230;28;20018;-63
2021/11/15 11:34:50;;;;;;;11.45;7.32;;;8.40;99.90;;;;;;5013727;28;20021;-64
2021/11/15 11:37:19;;;;;;;11.98;7.50;;;8.50;99.90;;;;;;5013656;28;20106;-61
2021/11/15 11:39:48;;;;;;;11.52;7.35;;;8.40;99.90;;;;;;5014541;28;20069;-61
2021/11/15 11:42:15;;;;;;;11.90;7.82;;;8.30;99.90;;;;;;5013928;28;20025;-61
2021/11/15 11:44:42;;;;;;;11.68;8.52;;;8.30;99.90;;;;;;5013391;28;20570;-61
2021/11/15 11:47:11;;;;;;;10.65;7.25;;;8.40;99.90;;;;;;5014319;28;20519;-63
2021/11/15 11:49:38;;;;;;;11.30;7.43;;;8.30;99.90;;;;;;5014184;28;20060;-59
2021/11/15 11:52:07;;;;;;;10.52;7.68;;;8.60;99.90;;;;;;5014202;28;20032;-63
2021/11/15 11:54:39;;;;;;;13.27;7.82;;;8.50;99.90;;;;;;5013200;28;20564;-64
2021/11/15 11:57:10;;;;;;;12.18;8.43;;;8.60;99.90;;;;;;5013957;28;20395;-63
2021/11/15 11:59:58;;;;;;;11.18;7.22;;;8.60;99.90;;;;;;5013602;28;20026;-63
2021/11/15 12:02:26;;;;;;;12.00;8.48;;;8.60;99.90;;;;;;5013732;28;20018;-61
2021/11/15 12:04:53;;;;;;;12.32;8.80;;;8.40;99.90;;;;;;5013142;28;20033;-63
2021/11/15 12:07:33;;;;;;;10.40;7.35;;;8.50;99.90;;;;;;5013687;28;20022;-61
2021/11/15 12:10:02;;;;;;;11.88;7.30;;;8.40;99.90;;;;;;5013927;28;20038;-63
2021/11/15 12:15:42;;;;;;;11.63;8.30;;;8.50;99.90;;;;;;5000219;28;20484;-66
2021/11/15 12:18:11;;;;;;;;;;;8.50;99.90;;;;;;4994583;28;20033;-66
2021/11/15 12:21:02;;;;;;;12.68;8.43;;;8.30;99.90;;;;;;4994140;28;20050;-66
2021/11/15 12:23:34;;;;;;;14.47;9.03;;;8.50;99.90;;;;;;4993969;28;20401;-66
2021/11/15 12:26:03;;;;;;;12.85;7.85;;;8.40;99.90;;;;;;4993604;28;20044;-66
2021/11/15 12:28:30;;;;;;;11.52;8.43;;;8.60;99.90;;;;;;4993747;28;20034;-65
2021/11/15 12:30:57;;;;;;;12.45;8.23;;;8.60;99.90;;;;;;4993932;28;20026;-66
2021/11/15 12:33:26;;;;;;;13.57;8.77;;;8.50;99.90;;;;;;4993631;28;20053;-66
2021/11/15 12:35:57;;;;;;;16.52;8.50;;;8.00;99.90;;;;;;4992973;28;20080;-65
2021/11/15 12:38:51;;;;;;;14.10;8.52;;;8.20;99.90;;;;;;4993639;28;20073;-66
2021/11/15 12:41:17;;;;;;;13.15;9.02;;;8.30;99.90;;;;;;4992902;28;20066;-66
2021/11/15 12:43:48;;;;;;;13.02;9.00;;;8.30;99.90;;;;;;5001007;28;20456;-66
2021/11/15 12:46:18;;;;;;;12.73;8.53;;;8.40;99.90;;;;;;5012446;28;20032;-66
2021/11/15 12:48:48;;;;;;;13.02;8.48;;;8.40;99.90;;;;;;5013041;28;20055;-65
2021/11/15 12:51:22;;;;;;;14.63;9.52;;;8.00;99.90;;;;;;5013831;28;20029;-64
2021/11/15 12:53:52;;;;;;;14.45;9.48;;;8.20;99.90;;;;;;5013874;28;20026;-66